createdAt,value
2023-05-15T00:01:36.900Z,6.70
2023-05-15T00:04:06.036Z,6.72
2023-05-15T00:06:34.989Z,7.03
2023-05-15T00:09:04.241Z,6.75
2023-05-15T00:11:33.086Z,7.28
2023-05-15T00:14:02.209Z,5.63
2023-05-15T00:16:32.900Z,6.43
2023-05-15T00:19:01.960Z,6.28
2023-05-15T00:21:31.166Z,7.03
2023-05-15T00:24:00.736Z,7.38
2023-05-15T00:26:29.572Z,6.43
2023-05-15T00:28:58.863Z,5.47
2023-05-15T00:31:27.973Z,6.63
2023-05-15T00:33:59.327Z,5.57
2023-05-15T00:36:28.358Z,6.60
2023-05-15T00:38:58.005Z,7.13
2023-05-15T00:41:28.911Z,5.35
2023-05-15T00:44:00.506Z,5.80
2023-05-15T00:46:32.213Z,6.55
2023-05-15T00:49:04.635Z,7.28
2023-05-15T00:51:33.437Z,7.57
2023-05-15T00:54:02.627Z,8.50
2023-05-15T00:56:33.328Z,10.82
2023-05-15T00:59:03.983Z,9.07
2023-05-15T01:01:34.873Z,6.63
2023-05-15T01:04:06.627Z,9.20
2023-05-15T01:06:35.732Z,7.30
2023-05-15T01:09:05.570Z,5.63
2023-05-15T01:11:39.166Z,8.50
2023-05-15T01:14:09.301Z,6.57
2023-05-15T01:16:38.930Z,6.40
2023-05-15T01:19:09.642Z,8.80
2023-05-15T01:22:10.746Z,12.07
2023-05-15T01:25:08.731Z,8.15
2023-05-15T01:27:45.759Z,8.23
2023-05-15T01:30:22.499Z,8.15
2023-05-15T01:32:56.765Z,7.75
2023-05-15T01:35:32.892Z,7.53
2023-05-15T01:38:20.750Z,9.52
2023-05-15T01:40:50.124Z,9.20
2023-05-15T01:43:25.987Z,8.68
2023-05-15T01:45:56.119Z,8.90
2023-05-15T01:48:27.423Z,6.88
2023-05-15T01:51:02.328Z,9.43
2023-05-15T01:53:33.292Z,7.55
2023-05-15T01:56:04.038Z,6.53
2023-05-15T01:58:35.737Z,6.70
2023-05-15T02:01:06.025Z,7.22
2023-05-15T02:03:35.297Z,7.05
2023-05-15T02:06:06.103Z,8.10
2023-05-15T02:08:36.332Z,7.63
2023-05-15T02:11:06.008Z,8.07
2023-05-15T02:13:37.426Z,6.60
2023-05-15T02:16:07.219Z,8.98
2023-05-15T02:18:36.042Z,7.47
2023-05-15T02:21:05.416Z,7.35
2023-05-15T02:23:34.168Z,11.10
2023-05-15T02:26:15.827Z,10.85
2023-05-15T02:29:01.354Z,7.63
2023-05-15T02:31:37.157Z,7.90
2023-05-15T02:34:17.791Z,7.80
2023-05-15T02:36:50.299Z,8.10
2023-05-15T02:39:23.550Z,7.75
2023-05-15T02:41:54.555Z,7.70
2023-05-15T02:44:26.075Z,8.57
2023-05-15T02:46:55.835Z,8.03
2023-05-15T02:49:25.005Z,7.97
2023-05-15T02:51:54.340Z,7.88
2023-05-15T02:54:23.632Z,9.40
2023-05-15T02:56:52.722Z,9.07
2023-05-15T02:59:21.735Z,8.47
2023-05-15T03:01:52.279Z,8.27
2023-05-15T03:04:22.747Z,8.60
2023-05-15T03:06:51.660Z,7.65
2023-05-15T03:09:20.600Z,9.10
2023-05-15T03:11:49.805Z,7.90
2023-05-15T03:14:18.944Z,8.82
2023-05-15T03:16:48.340Z,10.70
2023-05-15T03:19:18.908Z,8.50
2023-05-15T03:21:47.844Z,7.77
2023-05-15T03:24:16.725Z,7.80
2023-05-15T03:26:46.118Z,8.88
2023-05-15T03:29:15.441Z,9.90
2023-05-15T03:31:44.436Z,9.87
2023-05-15T03:34:13.389Z,10.83
2023-05-15T03:36:44.772Z,11.43
2023-05-15T03:39:13.597Z,13.40
2023-05-15T03:41:42.600Z,13.23
2023-05-15T03:44:11.575Z,13.00
2023-05-15T03:46:42.131Z,12.37
2023-05-15T03:49:13.054Z,12.15
2023-05-15T03:51:42.071Z,12.93
2023-05-15T03:54:12.616Z,12.33
2023-05-15T03:56:41.489Z,13.10
2023-05-15T03:59:11.445Z,13.10
2023-05-15T04:01:55.411Z,13.00
2023-05-15T04:04:29.383Z,13.20
2023-05-15T04:06:58.747Z,14.60
2023-05-15T04:09:29.637Z,14.30
2023-05-15T04:11:58.537Z,14.93
2023-05-15T04:14:27.327Z,21.20
2023-05-15T04:16:56.372Z,13.67
2023-05-15T04:19:25.345Z,13.70
2023-05-15T04:21:54.111Z,13.33
2023-05-15T04:24:23.001Z,13.40
2023-05-15T04:26:53.628Z,13.27
2023-05-15T04:29:22.574Z,13.37
2023-05-15T04:31:51.597Z,14.03
2023-05-15T04:34:20.635Z,19.10
2023-05-15T04:36:49.811Z,13.88
2023-05-15T04:39:19.100Z,19.70
2023-05-15T04:41:48.212Z,16.65
2023-05-15T04:44:18.598Z,17.52
2023-05-15T04:46:47.376Z,16.25
2023-05-15T04:49:16.464Z,15.60
2023-05-15T04:51:45.307Z,12.88
2023-05-15T04:54:14.367Z,14.53
2023-05-15T04:56:43.195Z,15.10
2023-05-15T04:59:13.496Z,17.08
2023-05-15T05:01:44.027Z,18.00
2023-05-15T05:04:12.882Z,15.00
2023-05-15T05:06:42.368Z,15.13
2023-05-15T05:09:11.227Z,15.03
2023-05-15T05:11:43.668Z,14.30
2023-05-15T05:14:12.626Z,18.27
2023-05-15T05:16:41.447Z,15.85
2023-05-15T05:19:12.126Z,15.40
2023-05-15T05:21:41.250Z,17.03
2023-05-15T05:24:10.471Z,17.98
2023-05-15T05:26:39.551Z,18.13
2023-05-15T05:29:08.381Z,18.70
2023-05-15T05:31:37.216Z,18.20
2023-05-15T05:34:06.734Z,18.30
2023-05-15T05:36:37.792Z,21.07
2023-05-15T05:39:06.907Z,18.63
2023-05-15T05:41:36.206Z,18.70
2023-05-15T05:44:05.501Z,16.58
2023-05-15T05:46:34.519Z,15.63
2023-05-15T05:49:03.338Z,16.05
2023-05-15T05:51:32.595Z,15.83
2023-05-15T05:54:02.576Z,15.07
2023-05-15T05:56:31.429Z,18.43
2023-05-15T05:59:01.964Z,15.07
2023-05-15T06:01:31.287Z,14.90
2023-05-15T06:04:00.037Z,13.73
2023-05-15T06:06:28.927Z,17.53
2023-05-15T06:08:57.778Z,15.47
2023-05-15T06:11:28.293Z,13.73
2023-05-15T06:13:56.998Z,14.88
2023-05-15T06:16:25.819Z,14.33
2023-05-15T06:18:54.951Z,14.03
2023-05-15T06:21:23.972Z,14.53
2023-05-15T06:23:52.866Z,14.50
2023-05-15T06:26:22.065Z,14.57
2023-05-15T06:28:52.487Z,16.20
2023-05-15T06:31:21.591Z,16.77
2023-05-15T06:33:50.386Z,17.93
2023-05-15T06:36:18.993Z,18.50
2023-05-15T06:38:47.768Z,19.77
2023-05-15T06:41:16.544Z,20.77
2023-05-15T06:43:45.229Z,22.07
2023-05-15T06:46:19.164Z,19.90
2023-05-15T06:48:48.717Z,18.77
2023-05-15T06:51:17.414Z,21.30
2023-05-15T06:53:46.140Z,17.97
2023-05-15T06:56:15.001Z,19.27
2023-05-15T06:58:43.741Z,13.90
2023-05-15T07:01:14.074Z,14.37
2023-05-15T07:03:43.346Z,12.37
2023-05-15T07:06:12.113Z,12.43
2023-05-15T07:08:41.035Z,14.03
2023-05-15T07:11:09.599Z,12.13
2023-05-15T07:13:38.594Z,12.83
2023-05-15T07:16:07.908Z,11.43
2023-05-15T07:18:38.376Z,12.23
2023-05-15T07:21:07.584Z,14.47
2023-05-15T07:23:36.245Z,19.80
2023-05-15T07:26:05.002Z,18.40
2023-05-15T07:28:33.591Z,15.77
2023-05-15T07:31:03.077Z,14.10
2023-05-15T07:33:31.984Z,13.53
2023-05-15T07:36:02.121Z,14.37
2023-05-15T07:38:31.008Z,14.40
2023-05-15T07:40:59.618Z,16.83
2023-05-15T07:43:28.344Z,12.83
2023-05-15T07:45:57.059Z,12.87
2023-05-15T07:48:25.724Z,12.30
2023-05-15T07:50:55.206Z,12.87
2023-05-15T07:53:25.351Z,12.60
2023-05-15T07:55:54.149Z,12.60
2023-05-15T07:58:23.230Z,12.47
2023-05-15T08:00:51.886Z,13.37
2023-05-15T08:03:20.693Z,13.60
2023-05-15T08:05:49.505Z,13.37
2023-05-15T08:08:18.134Z,14.27
2023-05-15T08:10:48.153Z,14.70
2023-05-15T08:13:16.900Z,13.57
2023-05-15T08:15:45.466Z,14.13
2023-05-15T08:18:14.218Z,16.20
2023-05-15T08:20:42.976Z,16.97
2023-05-15T08:23:14.083Z,16.30
2023-05-15T08:25:42.777Z,22.13
2023-05-15T08:28:12.812Z,27.43
2023-05-15T08:30:41.415Z,30.37
2023-05-15T08:33:10.230Z,24.87
2023-05-15T08:35:38.891Z,26.70
2023-05-15T08:38:07.604Z,22.17
2023-05-15T08:40:39.896Z,21.20
2023-05-15T08:43:15.130Z,22.13
2023-05-15T08:45:44.579Z,24.23
2023-05-15T08:48:17.187Z,26.07
2023-05-15T08:50:46.147Z,24.23
2023-05-15T08:53:15.775Z,21.47
2023-05-15T08:55:44.938Z,22.43
2023-05-15T08:58:16.924Z,23.03
2023-05-15T09:00:46.186Z,22.43
2023-05-15T09:03:16.600Z,19.77
2023-05-15T09:05:46.499Z,21.00
2023-05-15T09:08:17.248Z,21.23
2023-05-15T09:10:46.648Z,22.37
2023-05-15T09:13:17.304Z,22.50
2023-05-15T09:15:49.480Z,21.17
2023-05-15T09:18:19.045Z,20.17
2023-05-15T09:20:48.032Z,19.13
2023-05-15T09:23:28.055Z,19.20
2023-05-15T09:25:58.491Z,18.63
2023-05-15T09:28:30.759Z,19.17
2023-05-15T09:31:01.827Z,17.40
2023-05-15T09:33:33.252Z,16.63
2023-05-15T09:36:02.441Z,15.80
2023-05-15T09:38:33.678Z,16.87
2023-05-15T09:41:04.097Z,17.03
2023-05-15T09:43:38.037Z,16.83
2023-05-15T09:46:08.414Z,18.33
2023-05-15T09:48:37.497Z,16.43
2023-05-15T09:51:15.573Z,15.43
2023-05-15T09:53:44.328Z,17.00
2023-05-15T09:56:13.422Z,16.30
2023-05-15T09:58:53.738Z,17.00
2023-05-15T10:01:23.274Z,16.52
2023-05-15T10:03:59.831Z,15.13
2023-05-15T10:06:28.995Z,15.43
2023-05-15T10:08:58.896Z,15.63
2023-05-15T10:11:27.936Z,15.37
2023-05-15T10:13:59.292Z,15.20
2023-05-15T10:16:29.991Z,15.77
2023-05-15T10:19:04.267Z,15.60
2023-05-15T10:21:35.938Z,15.87
2023-05-15T10:24:06.485Z,16.67
2023-05-15T10:26:39.351Z,16.83
2023-05-15T10:29:11.159Z,16.70
2023-05-15T10:31:41.104Z,17.30
2023-05-15T10:34:11.985Z,16.43
2023-05-15T10:36:41.310Z,16.30
2023-05-15T10:39:10.107Z,16.30
2023-05-15T10:41:41.257Z,17.30
2023-05-15T10:44:12.259Z,16.43
2023-05-15T10:46:41.526Z,16.47
2023-05-15T10:49:10.572Z,15.98
2023-05-15T10:51:40.464Z,16.37
2023-05-15T10:54:11.252Z,13.98
2023-05-15T10:56:40.849Z,15.73
2023-05-15T10:59:12.330Z,14.90
2023-05-15T11:01:42.531Z,14.70
2023-05-15T11:04:13.734Z,15.93
2023-05-15T11:06:44.867Z,14.40
2023-05-15T11:09:36.088Z,15.80
2023-05-15T11:12:05.919Z,16.00
2023-05-15T11:14:37.693Z,17.17
2023-05-15T11:17:08.825Z,15.63
2023-05-15T11:19:57.998Z,16.85
2023-05-15T11:22:32.473Z,17.67
2023-05-15T11:25:03.360Z,18.00
2023-05-15T11:27:33.419Z,17.77
2023-05-15T11:30:15.283Z,17.57
2023-05-15T11:32:46.736Z,17.90
2023-05-15T11:35:20.286Z,17.33
2023-05-15T11:37:50.101Z,15.40
2023-05-15T11:40:24.406Z,15.70
2023-05-15T11:43:07.780Z,15.77
2023-05-15T11:45:39.575Z,16.25
2023-05-15T11:48:13.541Z,17.85
2023-05-15T11:50:43.239Z,17.40
2023-05-15T11:53:12.273Z,16.75
2023-05-15T11:55:42.297Z,14.98
2023-05-15T11:58:15.861Z,15.35
2023-05-15T12:00:47.643Z,16.00
2023-05-15T12:03:18.023Z,15.32
2023-05-15T12:05:57.477Z,15.73
2023-05-15T12:08:32.464Z,16.40
2023-05-15T12:11:01.951Z,15.43
2023-05-15T12:13:31.785Z,17.27
2023-05-15T12:16:03.408Z,16.80
2023-05-15T12:18:33.080Z,17.27
2023-05-15T12:21:02.176Z,16.00
2023-05-15T12:23:30.771Z,16.20
2023-05-15T12:26:02.009Z,16.25
2023-05-15T12:28:33.456Z,16.30
2023-05-15T12:31:04.051Z,16.30
2023-05-15T12:33:32.903Z,16.63
2023-05-15T12:36:02.066Z,17.27
2023-05-15T12:38:31.113Z,15.63
2023-05-15T12:40:59.943Z,16.60
2023-05-15T12:43:28.809Z,17.33
2023-05-15T12:45:58.226Z,16.20
2023-05-15T12:48:32.857Z,16.45
2023-05-15T12:51:08.337Z,16.52
2023-05-15T12:53:39.482Z,15.80
2023-05-15T12:56:09.343Z,14.57
2023-05-15T12:58:39.520Z,14.93
2023-05-15T13:01:08.353Z,14.40
2023-05-15T13:03:39.445Z,14.38
2023-05-15T13:06:10.626Z,13.93
2023-05-15T13:08:42.086Z,13.77
2023-05-15T13:11:14.392Z,14.43
2023-05-15T13:13:45.367Z,13.90
2023-05-15T13:16:21.262Z,12.65
2023-05-15T13:18:52.044Z,12.38
2023-05-15T13:21:20.976Z,11.90
2023-05-15T13:23:49.830Z,10.95
2023-05-15T13:26:18.554Z,11.20
2023-05-15T13:28:47.312Z,11.57
2023-05-15T13:31:16.124Z,11.40
2023-05-15T13:33:44.707Z,12.05
2023-05-15T13:36:15.041Z,11.32
2023-05-15T13:38:43.787Z,12.45
2023-05-15T13:41:12.616Z,11.57
2023-05-15T13:43:41.221Z,11.30
2023-05-15T13:46:09.952Z,11.25
2023-05-15T13:48:39.141Z,11.40
2023-05-15T13:51:07.911Z,11.90
2023-05-15T13:53:38.136Z,11.77
2023-05-15T13:56:07.462Z,12.23
2023-05-15T13:58:36.423Z,11.55
2023-05-15T14:01:07.155Z,10.18
2023-05-15T14:03:36.178Z,12.75
2023-05-15T14:06:05.509Z,11.90
2023-05-15T14:08:34.523Z,11.20
2023-05-15T14:11:04.841Z,11.10
2023-05-15T14:13:35.335Z,10.75
2023-05-15T14:16:03.850Z,10.15
2023-05-15T14:18:32.645Z,10.45
2023-05-15T14:21:01.368Z,10.68
2023-05-15T14:23:29.981Z,10.48
2023-05-15T14:25:59.113Z,9.90
2023-05-15T14:28:29.097Z,9.00
2023-05-15T14:30:58.015Z,6.10
2023-05-15T14:33:27.423Z,6.15
2023-05-15T14:35:55.982Z,5.18
2023-05-15T14:38:24.746Z,5.93
2023-05-15T14:40:53.474Z,6.45
2023-05-15T14:43:24.315Z,5.85
2023-05-15T14:45:54.469Z,5.78
2023-05-15T14:48:23.110Z,5.00
2023-05-15T14:50:52.558Z,6.20
2023-05-15T14:53:21.199Z,4.80
2023-05-15T14:55:49.915Z,5.30
2023-05-15T14:58:18.623Z,4.72
2023-05-15T15:00:48.266Z,5.00
2023-05-15T15:03:19.238Z,4.72
2023-05-15T15:05:48.058Z,5.55
2023-05-15T15:08:16.790Z,4.53
2023-05-15T15:10:45.445Z,5.80
2023-05-15T15:13:14.251Z,4.85
2023-05-15T15:15:42.867Z,5.57
2023-05-15T15:18:11.685Z,5.07
2023-05-15T15:20:42.808Z,5.80
2023-05-15T15:23:11.441Z,8.27
2023-05-15T15:25:40.321Z,9.32
2023-05-15T15:28:09.228Z,9.52
2023-05-15T15:30:37.831Z,10.25
2023-05-15T15:33:06.576Z,11.40
2023-05-15T15:35:35.388Z,10.85
2023-05-15T15:38:05.538Z,12.52
2023-05-15T15:40:35.983Z,14.70
2023-05-15T15:43:04.564Z,14.30
2023-05-15T15:45:33.139Z,14.98
2023-05-15T15:48:01.995Z,15.77
2023-05-15T15:50:30.838Z,16.30
2023-05-15T15:52:59.554Z,17.45
2023-05-15T15:55:29.714Z,16.73
2023-05-15T15:57:58.389Z,17.17
2023-05-15T16:00:27.065Z,16.80
2023-05-15T16:02:55.823Z,17.38
2023-05-15T16:05:24.538Z,16.80
2023-05-15T16:07:53.212Z,17.10
2023-05-15T16:10:23.207Z,18.02
2023-05-15T16:12:53.331Z,18.73
2023-05-15T16:15:23.794Z,15.80
2023-05-15T16:17:55.024Z,10.77
2023-05-15T16:20:24.528Z,11.23
2023-05-15T16:22:53.586Z,25.77
2023-05-15T16:25:22.311Z,11.80
2023-05-15T16:27:52.323Z,10.15
2023-05-15T16:30:21.281Z,10.05
2023-05-15T16:32:50.407Z,11.93
2023-05-15T16:35:20.622Z,10.52
2023-05-15T16:37:49.443Z,11.00
2023-05-15T16:40:18.168Z,12.60
2023-05-15T16:42:46.990Z,12.30
2023-05-15T16:45:16.911Z,13.07
2023-05-15T16:47:45.775Z,14.15
2023-05-15T16:50:14.391Z,14.90
2023-05-15T16:52:45.927Z,14.83
2023-05-15T16:55:16.248Z,16.53
2023-05-15T16:57:45.350Z,16.23
2023-05-15T17:00:17.012Z,16.70
2023-05-15T17:02:46.009Z,18.37
2023-05-15T17:05:15.100Z,18.80
2023-05-15T17:07:44.822Z,20.90
2023-05-15T17:10:13.954Z,22.50
2023-05-15T17:12:42.587Z,22.00
2023-05-15T17:15:12.262Z,22.57
2023-05-15T17:17:42.612Z,23.17
2023-05-15T17:20:12.773Z,23.40
2023-05-15T17:22:41.593Z,23.00
2023-05-15T17:25:11.252Z,24.93
2023-05-15T17:27:41.505Z,26.23
2023-05-15T17:30:11.529Z,25.63
2023-05-15T17:32:41.643Z,26.03
2023-05-15T17:35:11.508Z,26.30
2023-05-15T17:37:40.371Z,26.10
2023-05-15T17:40:10.062Z,25.80
2023-05-15T17:42:39.041Z,25.27
2023-05-15T17:45:08.781Z,25.17
2023-05-15T17:47:37.440Z,22.83
2023-05-15T17:50:09.194Z,22.10
2023-05-15T17:52:38.279Z,22.23
2023-05-15T17:55:08.061Z,20.13
2023-05-15T17:57:36.688Z,20.63
2023-05-15T18:00:07.111Z,20.67
2023-05-15T18:02:40.870Z,19.97
2023-05-15T18:05:11.440Z,20.77
2023-05-15T18:07:42.173Z,19.83
2023-05-15T18:10:11.231Z,21.10
2023-05-15T18:12:39.874Z,19.67
2023-05-15T18:15:09.582Z,18.70
2023-05-15T18:17:38.342Z,17.87
2023-05-15T18:20:08.320Z,18.20
2023-05-15T18:22:38.485Z,16.33
2023-05-15T18:25:07.543Z,17.00
2023-05-15T18:27:36.675Z,16.73
2023-05-15T18:30:05.867Z,16.53
2023-05-15T18:32:34.690Z,17.43
2023-05-15T18:35:03.853Z,17.27
2023-05-15T18:37:32.658Z,15.53
2023-05-15T18:40:02.776Z,16.57
2023-05-15T18:42:31.424Z,14.00
2023-05-15T18:45:00.052Z,13.67
2023-05-15T18:47:28.874Z,12.30
2023-05-15T18:49:57.499Z,12.53
2023-05-15T18:52:26.993Z,12.63
2023-05-15T18:54:57.595Z,13.40
2023-05-15T18:57:27.692Z,12.30
2023-05-15T18:59:56.348Z,13.67
2023-05-15T19:02:26.196Z,13.53
2023-05-15T19:04:55.010Z,14.00
2023-05-15T19:07:23.561Z,13.43
2023-05-15T19:09:52.152Z,15.50
2023-05-15T19:12:21.048Z,13.67
2023-05-15T19:14:51.143Z,14.37
2023-05-15T19:17:20.539Z,13.60
2023-05-15T19:19:49.213Z,13.47
2023-05-15T19:22:17.936Z,14.03
2023-05-15T19:24:46.716Z,14.23
2023-05-15T19:27:15.330Z,12.07
2023-05-15T19:29:43.944Z,11.63
2023-05-15T19:32:14.062Z,12.03
2023-05-15T19:34:43.041Z,11.07
2023-05-15T19:37:12.268Z,11.73
2023-05-15T19:39:41.099Z,11.80
2023-05-15T19:42:09.833Z,12.53
2023-05-15T19:44:38.502Z,12.37
2023-05-15T19:47:08.916Z,13.30
2023-05-15T19:49:38.969Z,12.07
2023-05-15T19:52:07.671Z,11.77
2023-05-15T19:54:36.293Z,11.47
2023-05-15T19:57:05.194Z,11.17
2023-05-15T19:59:33.831Z,12.60
2023-05-15T20:02:03.455Z,12.00
2023-05-15T20:04:32.558Z,13.57
2023-05-15T20:07:02.527Z,14.63
2023-05-15T20:09:31.386Z,15.17
2023-05-15T20:12:00.779Z,14.20
2023-05-15T20:14:29.446Z,15.07
2023-05-15T20:16:58.125Z,13.77
2023-05-15T20:19:27.525Z,15.57
2023-05-15T20:21:56.404Z,13.63
2023-05-15T20:24:26.993Z,14.93
2023-05-15T20:26:55.755Z,15.60
2023-05-15T20:29:25.644Z,12.40
2023-05-15T20:31:54.431Z,12.80
2023-05-15T20:34:23.368Z,12.77
2023-05-15T20:36:52.937Z,12.60
2023-05-15T20:39:21.832Z,13.27
2023-05-15T20:41:51.893Z,12.53
2023-05-15T20:44:20.943Z,13.27
2023-05-15T20:46:49.576Z,12.33
2023-05-15T20:49:18.214Z,12.83
2023-05-15T20:51:48.660Z,13.40
2023-05-15T20:54:17.358Z,13.40
2023-05-15T20:56:45.939Z,13.60
2023-05-15T20:59:16.161Z,13.67
2023-05-15T21:01:44.968Z,13.57
2023-05-15T21:04:13.848Z,13.23
2023-05-15T21:06:42.500Z,12.97
2023-05-15T21:09:11.277Z,13.33
2023-05-15T21:11:39.937Z,13.83
2023-05-15T21:14:08.560Z,13.20
2023-05-15T21:16:38.703Z,12.60
2023-05-15T21:19:07.448Z,14.80
2023-05-15T21:21:36.387Z,13.10
2023-05-15T21:24:05.458Z,13.33
2023-05-15T21:26:34.122Z,13.00
2023-05-15T21:29:02.805Z,12.77
2023-05-15T21:31:31.470Z,12.30
2023-05-15T21:34:01.517Z,12.20
2023-05-15T21:36:30.111Z,12.73
2023-05-15T21:38:58.906Z,12.37
2023-05-15T21:41:27.507Z,13.47
2023-05-15T21:43:56.123Z,13.80
2023-05-15T21:46:24.785Z,13.03
2023-05-15T21:48:53.405Z,13.63
2023-05-15T21:51:23.507Z,12.93
2023-05-15T21:53:52.162Z,13.83
2023-05-15T21:56:21.503Z,13.93
2023-05-15T21:58:50.250Z,12.67
2023-05-15T22:01:19.028Z,13.30
2023-05-15T22:03:47.819Z,13.40
2023-05-15T22:06:16.532Z,13.23
2023-05-15T22:08:46.637Z,14.23
2023-05-15T22:11:16.273Z,14.70
2023-05-15T22:13:45.124Z,13.93
2023-05-15T22:16:14.298Z,15.03
2023-05-15T22:18:45.332Z,14.50
2023-05-15T22:21:14.136Z,17.10
2023-05-15T22:23:42.832Z,14.57
2023-05-15T22:26:13.112Z,15.67
2023-05-15T22:28:42.029Z,15.83
2023-05-15T22:31:10.804Z,15.63
2023-05-15T22:33:39.419Z,15.53
2023-05-15T22:36:08.374Z,15.70
2023-05-15T22:38:37.097Z,16.43
2023-05-15T22:41:06.021Z,15.57
2023-05-15T22:43:36.648Z,15.60
2023-05-15T22:46:05.474Z,17.27
2023-05-15T22:48:34.207Z,16.83
2023-05-15T22:51:02.772Z,16.27
2023-05-15T22:53:31.761Z,17.07
2023-05-15T22:56:00.392Z,16.40
2023-05-15T22:58:29.120Z,15.77
2023-05-15T23:00:59.773Z,18.10
2023-05-15T23:03:28.565Z,17.03
2023-05-15T23:05:57.295Z,20.20
2023-05-15T23:08:26.093Z,17.33
2023-05-15T23:10:56.105Z,16.33
2023-05-15T23:13:25.374Z,16.47
2023-05-15T23:15:54.072Z,18.00
2023-05-15T23:18:24.039Z,19.60
2023-05-15T23:20:52.775Z,16.83
2023-05-15T23:23:21.419Z,16.27
2023-05-15T23:25:50.057Z,17.30
2023-05-15T23:28:18.858Z,16.57
2023-05-15T23:30:48.362Z,16.47
2023-05-15T23:33:17.210Z,16.77
2023-05-15T23:35:47.292Z,16.70
2023-05-15T23:38:15.975Z,17.03
2023-05-15T23:40:44.705Z,16.33
2023-05-15T23:43:13.290Z,16.37
2023-05-15T23:45:41.936Z,15.27
2023-05-15T23:48:10.854Z,18.60
2023-05-15T23:50:39.722Z,16.77
2023-05-15T23:53:09.647Z,16.20
2023-05-15T23:55:38.360Z,17.07
2023-05-15T23:58:07.021Z,16.90
